普天間飛行場の過去48時間の天気

普天間飛行場 (Futema)

現在時刻: 5/28 13:41 JST (5/28 04:41 UTC) 以下の時間は現地時間です。

過去48時間のMETAR気象情報
時間 風向 風速(m/s) 視程 気温(℃) 湿度(%) 気圧(hPa) 天気現象
28 12:56 東北東 2 10km以上 27.2 85 1010.1
28 11:56 北西 5 10km以上 26.7 87 1010.3
28 10:56 北西 4 10km以上 27.2 94 1010.2
28 09:56 北西 3 10km以上 26.1 97 1010.3
28 07:56 北北東 2 10km以上 25 90 1010.2
28 05:56 2 10km以上 22.8 96 1009.6
28 04:56 北北西 3 10km以上 22.8 87 1009.1
28 03:56 静穏 0 10km以上 22.8 87 1008.8
28 02:56 3 10km以上 23.3 79 1008.6
27 21:56 4 10km以上 24.4 76 1008.6
27 20:56 北西 4 10km以上 25 90 1008.2
27 19:56 北西 2 10km以上 25 82 1007.3
27 18:56 西北西 2 10km以上 25 79 1006.8
27 16:56 西 5 10km以上 26.1 77 1006.4
27 15:56 西北西 4 10km以上 25.6 87 1006.4
27 14:56 西北西 4 10km以上 25.6 76 1006.6
27 11:56 西南西 7 9000m 27.8 85 1006.8 もや
27 09:56 南西 9 9000m 27.2 79 1006.4 もや
27 07:56 南西 8 10km以上 26.7 82 1006.5
27 06:56 南西 7 10km以上 26.7 79 1005.8
27 05:56 南西 5 10km以上 26.7 82 1005.8
27 04:56 南西 5 10km以上 26.7 79 1005.5
27 03:56 南西 5 10km以上 26.7 82 1005.7
27 01:56 5 10km以上 26 85 1006.2
27 00:56 4 10km以上 26.1 88 1006.8
26 23:56 4 10km以上 26.1 88 1007.5
26 22:56 4 10km以上 26.1 88 1007.8
26 21:56 南南東 4 10km以上 25.6 87 1007.7
26 20:56 南東 4 10km以上 25.6 90 1007.4
26 19:56 南東 4 10km以上 26.1 84 1007.6
26 18:56 南東 5 10km以上 26.4 83 1007.1
26 17:56 東南東 6 10km以上 27.8 79 1006.8
26 16:56 東南東 5 10km以上 28 79 1003.9
26 15:56 4 10km以上 26.7 80 1007.2
26 14:56 4 10km以上 27.2 83 1007.4
26 13:56 南南東 5 10km以上 27.2 78 1008.2
ROTM 280356Z COR 07004KT 9999 SCT022 BKN050 BKN060 27/24 A2988 RMK SLP101 T02720244
ROTM 280256Z 32010KT 9999 FEW025 BKN055 27/24 A2988 RMK SLP103 T02670244 52002
ROTM 280156Z 32007KT 9999 FEW025 SCT055 BKN200 27/26 A2988 RMK SLP102 T02720261
ROTM 280056Z COR 31006KT 9999 SCT015 BKN050 26/26 A2988 RMK SLP103 T02610256
ROTM 272256Z COR 02003KT 9999 FEW010 SCT080 25/23 A2988 RMK SLP102 T02500233
ROTM 272056Z 01004KT 9999 FEW006 SCT050 BKN080 23/22 A2986 RMK SLP096 T02280222 53008
ROTM 271956Z 34005KT 9999 FEW012 SCT040 BKN075 23/21 A2985 RMK SLP091 T02280206
ROTM 271856Z 00000KT 9999 FEW012 SCT037 BKN080 23/21 A2984 RMK SLP088 T02280206
ROTM 271756Z VRB05KT 9999 SCT009 BKN037 BKN080 23/19 A2983 RMK SLP086 T02330194 10244 20233
ROTM 271256Z 36007KT 9999 SCT008 BKN015 BKN060 24/20 A2983 RMK SLP086 T02440200
ROTM 271156Z 32007KT 9999 SCT006 BKN060 BKN075 25/23 A2982 RMK SLP082 70000 T02500233 10261 20250 53014
ROTM 271056Z 32004KT 9999 BKN050 OVC070 25/22 A2979 RMK SLP073 T02500217
ROTM 270956Z 30004KT 9999 BKN037 OVC060 25/21 A2978 RMK SLP068 T02500211
ROTM 270756Z 28009KT 9999 SCT010 BKN047 BKN100 26/22 A2976 RMK SLP064 T02610217
ROTM 270656Z 29008KT 9999 BKN010 BKN030 BKN100 26/23 A2976 RMK SLP064 T02560233
ROTM 270556Z 30008KT 9999 BKN007 BKN012 OVC030 26/21 A2977 RMK SLP066 T02560211 10278 20261 58002
ROTM 270256Z 24014KT 9000 BR BKN009 OVC012 28/25 A2978 RMK SLP068 60000 T02780250 52003
ROTM 270056Z 23017G24KT 9000 BR BKN010 BKN020 OVC040 28/24 A2977 RMK SHRAE23 SLP064 T02720233
ROTM 262256Z 22015KT 9999 SCT008 BKN015 OVC038 27/23 A2976 RMK SLP065 T02670233
ROTM 262156Z 22013KT 9999 SCT008 BKN015 BKN038 27/23 A2975 RMK SLP058 T02670228
ROTM 262056Z 22010KT 9999 SCT015 BKN050 BKN070 27/23 A2975 RMK SLP058 60000 T02670233 53002
ROTM 261956Z 22009KT 9999 FEW015 SCT025 27/23 A2974 RMK SLP055 T02670228
ROTM 261856Z 22010KT 9999 FEW015 BKN040 27/23 A2974 RMK RAE48 SLP057 P0000 T02670233
ROTM 261656Z 19009KT 9999 FEW015 BKN030 26/23 A2976 RMK SLP062 T02600233
ROTM 261556Z 18008KT 9999 FEW015 BKN030 BKN050 26/24 A2978 RMK SLP068 T02610240
ROTM 261456Z 17007KT 9999 SCT010 BKN025 BKN040 26/24 A2980 RMK SLP075 T02610239 402800194 50000
ROTM 261356Z 17008KT 9999 SCT015 BKN150 26/24 A2980 RMK SLP078 T02610239
ROTM 261256Z 15007KT 9999 SCT010 BKN020 26/23 A2980 RMK SLP077 T02560233
ROTM 261156Z COR 14008KT 9999 SCT009 BKN020 26/24 A2980 RMK SLP074 T02560239 10280 20256 51007
ROTM 261056Z 14008KT 9999 FEW012 SCT050 BKN160 26/23 A2980 RMK SLP076 T02610231
ROTM 260956Z 13009KT 9999 FEW012 SCT020 BKN160 26/23 A2979 RMK SLP071 T02640233
ROTM 260856Z 12011KT 9999 SCT016 BKN026 BKN160 27/24 A2978 RMK SLP068 T02780239 57007
ROTM 260756Z 12009KT 9999 SCT025 BKN035 BKN050 28/24 A2978 RMK SLP039 T02800241
ROTM 260656Z 10007KT 9999 SCT025 BKN035 BKN050 27/23 A2979 RMK SLP072 T02670230
ROTM 260556Z 09007KT 9999 SCT015 BKN035 BKN070 27/24 A2980 RMK SLP074 T02720240 10272 20260 57012
ROTM 260456Z 16010KT 9999 SCT015 BKN030 BKN060 27/23 A2980 RMK SLP082 T02720230